Time;durP1;ratioP1;P1;durP2;ratioP2;P2;SDS_P1;SDS_P2;PMS_P1;PMS_P2;Temp;Humidity;BMP_temperature;BMP_pressure;BME280_temperature;BME280_humidity;BME280_pressure;Samples;Min_cycle;Max_cycle;Signal;HPM_P1;HPM_P2
2022/10/06 00:00:43;;;;;;;6.00;2.97;;;;;;;15.49;64.57;100686.69;4998967;28;99980;-86
2022/10/06 00:03:09;;;;;;;4.18;2.63;;;;;;;15.58;64.50;100698.63;5005590;28;98531;-86
2022/10/06 00:05:35;;;;;;;6.05;3.10;;;;;;;15.54;64.54;100689.97;4990374;28;97197;-86
2022/10/06 00:08:01;;;;;;;5.47;2.50;;;;;;;15.32;64.49;100666.34;4997163;28;97104;-87
2022/10/06 00:10:27;;;;;;;5.68;2.95;;;;;;;15.64;64.80;100698.31;4975456;28;99945;-87
2022/10/06 00:12:53;;;;;;;5.32;2.85;;;;;;;15.57;64.68;100695.13;4978568;28;99983;-85
2022/10/06 00:15:23;;;;;;;6.75;2.90;;;;;;;15.39;65.06;100701.31;4992540;28;96946;-86
2022/10/06 00:17:48;;;;;;;4.28;2.65;;;;;;;15.37;65.29;100700.50;4995388;28;98246;-86
2022/10/06 00:20:14;;;;;;;5.43;3.35;;;;;;;15.50;65.09;100698.97;4982318;28;101958;-87
2022/10/06 00:22:43;;;;;;;6.68;3.10;;;;;;;15.34;65.56;100693.59;4994350;28;98089;-87
2022/10/06 00:25:10;;;;;;;7.15;2.85;;;;;;;15.19;65.73;100669.66;4997148;28;96831;-86
2022/10/06 00:27:38;;;;;;;3.17;2.58;;;;;;;15.36;65.58;100701.47;4983344;28;96856;-87
2022/10/06 00:30:05;;;;;;;4.28;2.78;;;;;;;15.24;65.66;100686.16;4981788;28;101765;-87
2022/10/06 00:32:31;;;;;;;3.47;2.30;;;;;;;15.32;65.93;100698.06;4977200;28;101116;-86
2022/10/06 00:34:59;;;;;;;4.50;2.75;;;;;;;15.34;66.05;100695.38;4987955;28;96807;-86
2022/10/06 00:37:27;;;;;;;5.15;2.60;;;;;;;15.49;65.74;100702.56;4996945;28;97163;-86
2022/10/06 00:39:53;;;;;;;3.42;2.60;;;;;;;15.40;65.64;100695.94;4996541;27;98434;-86
2022/10/06 00:42:27;;;;;;;7.65;2.72;;;;;;;15.43;65.93;100709.94;4994426;28;98941;-86
2022/10/06 00:44:53;;;;;;;4.78;2.80;;;;;;;15.36;65.88;100689.09;4997763;28;97029;-86
2022/10/06 00:47:21;;;;;;;4.07;2.47;;;;;;;15.22;65.84;100670.38;4979804;28;96969;-85
2022/10/06 00:49:46;;;;;;;4.82;2.60;;;;;;;15.49;65.73;100693.78;4980750;28;101181;-85
2022/10/06 00:52:16;;;;;;;4.82;2.83;;;;;;;15.44;65.77;100698.41;4998156;28;97931;-86
2022/10/06 00:54:41;;;;;;;5.05;2.90;;;;;;;15.45;65.46;100697.50;4970083;28;97292;-86
2022/10/06 00:57:07;;;;;;;5.63;2.65;;;;;;;15.56;65.58;100711.94;4988140;28;97067;-86
2022/10/06 00:59:34;;;;;;;5.55;2.58;;;;;;;15.54;65.63;100712.94;4993394;27;101097;-87
2022/10/06 01:02:03;;;;;;;4.40;3.03;;;;;;;15.49;65.51;100699.06;4976742;28;101477;-86
2022/10/06 01:04:35;;;;;;;7.88;2.72;;;;;;;15.56;65.37;100700.47;4997129;28;96936;-87
2022/10/06 01:07:02;;;;;;;7.78;2.75;;;;;;;15.68;65.27;100701.69;4971428;28;96857;-86
2022/10/06 01:09:28;;;;;;;3.35;2.58;;;;;;;15.67;65.19;100697.31;4994917;28;100638;-86
2022/10/06 01:11:56;;;;;;;8.95;2.63;;;;;;;15.63;65.45;100699.25;4981117;28;101557;-86
2022/10/06 01:14:23;;;;;;;3.35;2.40;;;;;;;15.56;65.49;100709.28;4995838;28;97039;-87
2022/10/06 01:16:53;;;;;;;8.13;3.45;;;;;;;15.48;65.55;100710.59;4995911;28;98037;-88
2022/10/06 01:19:31;;;;;;;7.18;2.90;;;;;;;15.40;65.60;100698.56;5002456;28;98505;-85
2022/10/06 01:21:57;;;;;;;3.83;2.30;;;;;;;15.51;65.63;100711.28;4993301;28;100006;-86
2022/10/06 01:24:23;;;;;;;6.45;2.65;;;;;;;15.44;65.44;100711.66;4969286;28;97137;-87
2022/10/06 01:26:50;;;;;;;7.93;2.70;;;;;;;15.51;65.57;100713.09;4970717;28;97322;-86
2022/10/06 01:29:16;;;;;;;3.88;2.83;;;;;;;15.46;65.31;100704.50;4979654;28;101200;-86
2022/10/06 01:31:42;;;;;;;3.72;3.05;;;;;;;15.47;65.55;100708.84;4994961;28;100299;-86
2022/10/06 01:34:08;;;;;;;6.90;2.63;;;;;;;15.43;65.62;100708.16;4972789;28;97168;-86
2022/10/06 01:36:34;;;;;;;4.20;2.92;;;;;;;15.38;65.65;100711.00;4993770;28;96768;-86
2022/10/06 01:39:00;;;;;;;9.65;2.72;;;;;;;15.50;65.40;100711.34;5000833;28;97390;-86
2022/10/06 01:41:26;;;;;;;5.38;2.83;;;;;;;15.32;65.77;100705.16;4965751;28;99666;-88
2022/10/06 01:43:52;;;;;;;6.05;2.70;;;;;;;15.32;65.62;100707.81;4966222;28;96996;-86
2022/10/06 01:46:20;;;;;;;7.90;2.63;;;;;;;15.36;65.80;100701.47;4981977;28;98071;-85
2022/10/06 01:48:45;;;;;;;5.20;2.63;;;;;;;15.34;65.86;100704.16;4972403;28;101201;-86
2022/10/06 01:51:17;;;;;;;4.93;2.80;;;;;;;15.36;65.86;100706.75;4986319;28;101365;-86
2022/10/06 01:53:43;;;;;;;3.72;2.40;;;;;;;15.28;65.96;100706.25;4969737;28;97136;-86
2022/10/06 01:56:08;;;;;;;6.15;2.53;;;;;;;15.23;66.18;100714.38;5004515;28;96917;-86
2022/10/06 01:58:34;;;;;;;4.97;2.42;;;;;;;15.28;66.20;100724.75;4965992;28;101408;-85
2022/10/06 02:01:08;;;;;;;5.28;2.97;;;;;;;15.38;65.76;100718.94;4982187;28;100606;-86
2022/10/06 02:03:39;;;;;;;2.97;2.33;;;;;;;15.12;66.13;100696.38;4994777;28;97077;-86
2022/10/06 02:06:05;;;;;;;11.68;2.90;;;;;;;15.46;65.54;100723.88;4991901;28;97205;-86
2022/10/06 02:08:31;;;;;;;4.97;2.50;;;;;;;15.43;65.66;100723.16;4991517;27;101560;-85
2022/10/06 02:11:08;;;;;;;7.03;2.30;;;;;;;15.53;65.17;100725.31;5001894;28;100518;-85
2022/10/06 02:13:35;;;;;;;6.22;2.92;;;;;;;15.48;65.45;100729.09;4985636;28;97354;-85
2022/10/06 02:16:01;;;;;;;5.82;2.33;;;;;;;15.38;65.24;100708.38;4998133;28;96956;-85
2022/10/06 02:18:26;;;;;;;4.00;2.38;;;;;;;15.26;65.36;100698.38;4990980;28;98483;-87
2022/10/06 02:20:53;;;;;;;4.45;2.97;;;;;;;15.30;65.57;100692.03;4978982;28;101428;-84
2022/10/06 02:23:18;;;;;;;4.20;2.50;;;;;;;15.59;65.09;100740.88;4976759;28;96683;-85
2022/10/06 02:25:44;;;;;;;3.35;2.28;;;;;;;15.53;65.44;100735.91;4998473;28;96986;-85
2022/10/06 02:28:10;;;;;;;3.42;2.17;;;;;;;15.48;65.35;100744.97;4979526;28;101318;-85
2022/10/06 02:30:36;;;;;;;3.35;2.40;;;;;;;15.30;65.35;100715.81;4969965;28;100973;-86
2022/10/06 02:33:01;;;;;;;4.82;2.35;;;;;;;15.40;65.32;100721.53;4988718;28;98058;-86
2022/10/06 02:35:27;;;;;;;7.70;2.53;;;;;;;15.57;65.08;100745.38;4972753;28;97115;-86
2022/10/06 02:37:53;;;;;;;4.85;2.08;;;;;;;15.53;65.46;100746.47;5019529;28;98469;-85
2022/10/06 02:40:19;;;;;;;6.15;2.78;;;;;;;15.39;65.30;100728.63;4987704;28;101475;-86
2022/10/06 02:42:45;;;;;;;5.80;2.38;;;;;;;15.51;65.35;100747.47;4988835;28;96818;-85
2022/10/06 02:45:14;;;;;;;8.80;2.78;;;;;;;15.48;65.45;100761.72;4976646;27;97621;-86
2022/10/06 02:47:40;;;;;;;4.95;2.63;;;;;;;15.42;65.47;100758.47;5017146;28;101903;-86
2022/10/06 02:50:07;;;;;;;10.90;3.03;;;;;;;15.44;65.78;100759.28;4988665;28;98409;-85
2022/10/06 02:52:35;;;;;;;5.85;2.53;;;;;;;15.40;65.65;100758.56;4970103;28;97160;-86
2022/10/06 02:55:05;;;;;;;2.80;2.45;;;;;;;15.31;66.29;100746.63;4999910;28;96945;-86
2022/10/06 02:57:31;;;;;;;4.13;2.75;;;;;;;15.47;65.60;100764.41;4978480;28;100861;-86
2022/10/06 02:59:58;;;;;;;4.68;2.33;;;;;;;15.35;65.66;100761.41;4989505;28;100910;-85
2022/10/06 03:02:24;;;;;;;5.75;2.85;;;;;;;15.38;65.91;100765.69;4982109;27;97380;-85
2022/10/06 03:04:49;;;;;;;5.10;2.35;;;;;;;15.32;65.98;100774.78;5000722;28;97861;-85
2022/10/06 03:07:15;;;;;;;7.47;2.38;;;;;;;15.30;66.19;100767.84;5003513;28;98623;-85
2022/10/06 03:09:41;;;;;;;3.65;2.92;;;;;;;15.35;65.89;100773.78;4990474;28;100895;-86
2022/10/06 03:12:07;;;;;;;6.70;2.88;;;;;;;15.37;65.82;100771.94;4973869;28;97011;-85
2022/10/06 03:14:39;;;;;;;11.60;3.70;;;;;;;15.32;65.82;100776.56;4995497;28;97195;-85
2022/10/06 03:17:08;;;;;;;7.22;3.10;;;;;;;15.27;66.07;100773.28;4983221;28;100918;-85
2022/10/06 03:19:37;;;;;;;5.00;2.60;;;;;;;15.32;65.90;100787.16;4985791;27;100838;-86
2022/10/06 03:22:04;;;;;;;6.00;2.40;;;;;;;15.35;65.90;100792.28;4987604;28;97091;-87
2022/10/06 03:24:37;;;;;;;7.57;3.03;;;;;;;15.28;66.06;100793.53;4991682;28;96945;-85
2022/10/06 03:27:03;;;;;;;4.78;2.53;;;;;;;15.28;66.08;100797.03;4993559;28;101919;-85
2022/10/06 03:29:29;;;;;;;10.68;2.75;;;;;;;15.33;65.73;100800.31;4992041;28;101545;-88
2022/10/06 03:31:57;;;;;;;8.85;2.38;;;;;;;15.29;66.03;100803.16;4981105;28;96897;-84
2022/10/06 03:34:22;;;;;;;4.88;3.85;;;;;;;15.26;66.22;100801.50;4981542;28;96679;-85
2022/10/06 03:36:48;;;;;;;5.32;2.88;;;;;;;15.26;66.28;100805.94;4982128;28;99699;-85
2022/10/06 03:39:18;;;;;;;4.13;2.50;;;;;;;15.25;66.22;100807.75;4981088;28;100234;-85
2022/10/06 03:41:43;;;;;;;5.72;2.47;;;;;;;15.30;66.07;100802.22;4986047;28;97112;-84
2022/10/06 03:44:09;;;;;;;7.78;2.35;;;;;;;15.14;65.84;100779.13;5005731;28;96954;-85
2022/10/06 03:46:37;;;;;;;6.72;3.10;;;;;;;15.10;66.16;100788.16;4993521;28;101128;-85
2022/10/06 03:49:06;;;;;;;3.63;2.45;;;;;;;14.96;66.38;100776.47;4996015;28;101469;-86
2022/10/06 03:51:34;;;;;;;4.40;2.70;;;;;;;15.21;66.12;100818.50;4980718;28;96626;-88
2022/10/06 03:54:00;;;;;;;4.50;2.45;;;;;;;15.14;66.26;100812.66;4994003;27;96936;-86
2022/10/06 03:56:33;;;;;;;7.03;2.92;;;;;;;15.09;66.12;100798.78;5000544;28;101354;-86
2022/10/06 03:59:00;;;;;;;;;;;;;;;15.14;66.30;100824.09;5000573;28;101330;-86
2022/10/06 04:01:29;;;;;;;7.68;2.55;;;;;;;15.15;66.29;100827.59;4995264;28;97269;-86
2022/10/06 04:03:56;;;;;;;4.78;2.70;;;;;;;15.20;65.99;100833.53;4981667;28;96914;-86
2022/10/06 04:06:22;;;;;;;5.40;2.60;;;;;;;15.12;66.27;100830.38;4999813;28;101013;-86
2022/10/06 04:08:49;;;;;;;4.13;2.38;;;;;;;15.11;66.15;100828.66;4983594;28;99758;-86
2022/10/06 04:11:20;;;;;;;4.32;2.70;;;;;;;15.18;65.88;100838.03;4994486;27;97217;-85
2022/10/06 04:13:47;;;;;;;7.15;2.55;;;;;;;15.14;66.50;100837.31;5002718;28;96895;-86
2022/10/06 04:16:17;;;;;;;3.95;2.55;;;;;;;15.26;65.91;100841.19;4995423;28;101692;-86
2022/10/06 04:18:44;;;;;;;7.13;2.60;;;;;;;15.10;66.06;100834.88;4982045;28;101912;-86
2022/10/06 04:21:11;;;;;;;6.35;2.58;;;;;;;15.03;65.96;100822.84;4974361;28;96887;-85
2022/10/06 04:23:37;;;;;;;3.95;2.67;;;;;;;15.08;66.35;100848.16;4968162;28;97309;-86
2022/10/06 04:26:09;;;;;;;4.85;2.70;;;;;;;15.06;66.41;100839.44;4971969;28;100541;-85
2022/10/06 04:28:36;;;;;;;;;;;;;;;15.05;66.44;100850.94;4980049;27;100437;-89
2022/10/06 04:31:03;;;;;;;7.00;2.75;;;;;;;15.06;66.45;100844.72;4989184;28;97488;-86
2022/10/06 04:33:32;;;;;;;5.32;2.88;;;;;;;15.07;66.29;100843.81;4970667;28;97054;-85
2022/10/06 04:36:05;;;;;;;4.95;3.00;;;;;;;15.08;66.31;100847.31;4999063;28;101283;-86
2022/10/06 04:38:32;;;;;;;5.88;3.33;;;;;;;14.99;66.57;100845.94;4997097;28;101478;-88
2022/10/06 04:41:12;;;;;;;7.55;2.78;;;;;;;14.90;66.75;100844.53;4996863;28;97072;-87
2022/10/06 04:43:38;;;;;;;7.07;2.95;;;;;;;14.89;66.87;100855.16;4973960;28;96997;-86
2022/10/06 04:46:04;;;;;;;7.03;2.80;;;;;;;14.92;67.00;100868.25;4982161;28;101296;-89
2022/10/06 04:48:31;;;;;;;5.97;3.03;;;;;;;14.93;66.83;100868.19;4982067;28;100303;-86
2022/10/06 04:51:03;;;;;;;6.28;3.03;;;;;;;14.98;66.71;100869.78;4994424;28;96755;-89
2022/10/06 04:53:30;;;;;;;4.32;3.08;;;;;;;15.02;66.57;100877.50;4996076;28;97118;-86
2022/10/06 04:56:04;;;;;;;4.35;3.08;;;;;;;14.95;66.63;100881.34;4978116;28;100998;-92
2022/10/06 04:58:41;;;;;;;8.75;3.75;;;;;;;14.88;66.88;100878.09;4969198;28;101509;-88
2022/10/06 05:01:28;;;;;;;5.57;3.05;;;;;;;14.80;67.12;100880.22;4967007;28;97103;-86
2022/10/06 05:03:57;;;;;;;9.00;3.58;;;;;;;14.85;67.05;100885.31;4983059;28;97016;-86
2022/10/06 05:06:29;;;;;;;8.55;3.40;;;;;;;14.69;66.95;100863.97;4979992;28;101482;-86
2022/10/06 05:08:59;;;;;;;;;;;;;;;14.85;67.09;100904.66;4971313;28;99404;-86
2022/10/06 05:11:26;;;;;;;9.80;3.35;;;;;;;14.79;67.14;100881.16;4955403;28;96762;-87
2022/10/06 05:13:54;;;;;;;14.75;3.33;;;;;;;14.98;66.82;100906.78;4974415;28;97017;-87
2022/10/06 05:16:21;;;;;;;6.13;3.30;;;;;;;15.02;66.93;100909.25;4971430;28;99874;-87
2022/10/06 05:18:47;;;;;;;5.90;2.83;;;;;;;15.02;66.80;100909.25;4973511;28;100355;-87
2022/10/06 05:21:16;;;;;;;6.53;3.25;;;;;;;15.06;66.44;100916.09;4969433;28;97444;-87
2022/10/06 05:23:42;;;;;;;6.30;3.17;;;;;;;15.14;66.53;100915.78;4969591;28;96977;-87
2022/10/06 05:26:18;;;;;;;5.90;2.72;;;;;;;15.13;66.76;100916.72;4952558;28;100764;-89
2022/10/06 05:28:44;;;;;;;8.32;3.28;;;;;;;15.10;66.58;100919.50;4971210;28;99852;-89
2022/10/06 05:31:13;;;;;;;6.35;3.03;;;;;;;14.99;66.55;100897.94;4972539;28;97132;-88
2022/10/06 05:33:39;;;;;;;8.13;2.80;;;;;;;15.21;66.41;100932.22;4986006;28;96863;-90
2022/10/06 05:36:11;;;;;;;7.28;3.35;;;;;;;15.03;66.32;100894.22;4962288;28;101144;-89
2022/10/06 05:38:37;;;;;;;7.43;3.22;;;;;;;15.24;66.52;100926.81;4958860;28;101814;-88
2022/10/06 05:41:20;;;;;;;5.43;3.42;;;;;;;15.23;66.14;100931.25;4968736;28;96936;-87
2022/10/06 05:43:47;;;;;;;5.32;2.90;;;;;;;15.11;66.13;100900.06;4989280;28;96862;-88
2022/10/06 05:46:18;;;;;;;8.52;5.05;;;;;;;15.31;66.29;100933.56;4964583;28;101865;-83
2022/10/06 05:48:48;;;;;;;10.13;6.78;;;;;;;15.36;66.34;100940.38;4957587;28;101376;-88
2022/10/06 05:51:17;;;;;;;10.15;6.57;;;;;;;15.51;65.75;100944.13;4949142;28;96782;-86
2022/10/06 05:53:44;;;;;;;13.25;5.40;;;;;;;15.91;65.10;100944.09;4972305;28;96958;-87
2022/10/06 05:56:12;;;;;;;6.00;4.07;;;;;;;16.13;64.15;100943.97;4987520;28;99625;-86
2022/10/06 05:58:40;;;;;;;8.43;3.58;;;;;;;16.47;63.23;100935.28;4969359;28;101349;-86
2022/10/06 06:01:09;;;;;;;8.85;3.33;;;;;;;16.72;62.71;100942.84;4975914;28;96834;-86
2022/10/06 06:03:36;;;;;;;5.55;3.00;;;;;;;17.04;61.88;100948.38;4972090;28;97183;-85
2022/10/06 06:06:01;;;;;;;12.50;3.80;;;;;;;17.36;60.69;100933.44;4990082;28;99012;-86
2022/10/06 06:08:27;;;;;;;12.38;3.60;;;;;;;17.31;60.85;100946.97;4982878;28;99930;-86
2022/10/06 06:10:53;;;;;;;7.65;2.90;;;;;;;17.34;61.46;100968.03;5007634;28;96787;-85
2022/10/06 06:13:22;;;;;;;6.47;4.03;;;;;;;17.50;61.24;100976.03;4990579;28;97768;-86
2022/10/06 06:16:03;;;;;;;12.18;3.88;;;;;;;17.72;60.41;100970.47;4994107;28;101565;-85
2022/10/06 06:18:31;;;;;;;11.13;3.63;;;;;;;18.08;60.05;100980.91;4978850;28;99788;-85
2022/10/06 06:20:59;;;;;;;9.13;4.22;;;;;;;18.35;59.06;100977.66;4993383;28;97266;-86
2022/10/06 06:23:31;;;;;;;11.23;4.18;;;;;;;18.32;58.79;100945.94;4997737;28;97144;-85
2022/10/06 06:26:00;;;;;;;;;;;;;;;18.72;58.35;100987.06;4991616;28;101365;-85
2022/10/06 06:28:29;;;;;;;5.20;3.38;;;;;;;18.91;57.61;100988.69;4970846;28;101322;-85
2022/10/06 06:31:16;;;;;;;18.50;4.80;;;;;;;19.04;57.51;100991.50;4992717;28;97199;-85
2022/10/06 06:33:42;;;;;;;5.63;2.90;;;;;;;19.21;57.01;100994.88;4967345;28;97087;-81
2022/10/06 06:36:19;;;;;;;12.20;3.35;;;;;;;19.44;55.93;101008.59;4986936;28;101308;-83
2022/10/06 06:38:48;;;;;;;10.00;3.58;;;;;;;19.65;55.55;101014.47;5008633;28;101030;-88
2022/10/06 06:41:16;;;;;;;8.80;3.10;;;;;;;19.76;55.45;100998.69;4988778;28;96753;-91
2022/10/06 06:43:43;;;;;;;7.53;3.13;;;;;;;20.03;54.73;101006.75;4978463;28;97339;-87
2022/10/06 06:46:23;;;;;;;6.72;3.42;;;;;;;20.15;54.32;100990.94;4980985;28;101253;-89
2022/10/06 06:49:02;;;;;;;12.35;4.50;;;;;;;20.38;53.67;100998.34;4976069;28;98870;-89
2022/10/06 06:51:32;;;;;;;9.88;3.72;;;;;;;20.58;53.77;101005.94;4989955;28;96958;-91
2022/10/06 06:54:01;;;;;;;13.18;4.35;;;;;;;20.89;53.10;101025.28;4996806;28;97220;-89
2022/10/06 06:56:28;;;;;;;8.13;4.38;;;;;;;21.03;53.04;101014.53;4979418;28;100176;-90
2022/10/06 06:58:53;;;;;;;6.25;3.17;;;;;;;21.00;52.41;100996.06;4979623;28;100411;-88
2022/10/06 07:01:21;;;;;;;7.30;3.08;;;;;;;21.20;51.70;100973.34;4973850;28;97250;-87
2022/10/06 07:04:05;;;;;;;9.82;2.95;;;;;;;21.55;50.73;100990.59;4976950;28;97178;-91
2022/10/06 07:06:36;;;;;;;8.23;3.78;;;;;;;21.99;50.42;101030.25;5028325;28;101037;-93
2022/10/06 07:09:02;;;;;;;5.45;3.00;;;;;;;22.14;50.24;101021.13;4980767;28;99153;-89
2022/10/06 07:11:31;;;;;;;6.00;3.30;;;;;;;22.55;49.66;101051.25;4974008;28;97165;-93
2022/10/06 07:14:04;;;;;;;8.43;2.83;;;;;;;23.04;48.33;101034.25;4970189;28;97330;-94
2022/10/06 07:25:06;;;;;;;7.28;2.70;;;;;;;23.41;47.92;101043.00;4999954;28;96684;-88
2022/10/06 07:27:41;;;;;;;5.72;3.35;;;;;;;23.04;48.31;101048.50;4984103;28;100631;-85
2022/10/06 07:30:13;;;;;;;7.60;3.13;;;;;;;22.50;49.19;101048.88;4978012;28;101981;-85
2022/10/06 07:32:39;;;;;;;7.28;3.10;;;;;;;22.25;49.89;101060.53;4966214;28;96933;-89
2022/10/06 07:35:06;;;;;;;4.68;2.58;;;;;;;21.84;50.40;101050.00;4968762;28;97476;-87
2022/10/06 07:37:33;;;;;;;6.63;2.75;;;;;;;21.55;51.03;101042.19;4969256;28;101861;-86
2022/10/06 07:39:59;;;;;;;8.35;2.70;;;;;;;21.54;51.46;101071.69;4994136;28;98470;-86
2022/10/06 07:42:25;;;;;;;7.07;2.75;;;;;;;21.40;52.10;101073.47;4988677;28;97173;-86
2022/10/06 07:47:38;;;;;;;6.97;2.83;;;;;;;21.25;52.98;101077.16;5010238;28;100735;-87
2022/10/06 07:50:07;;;;;;;8.90;2.72;;;;;;;21.30;52.75;101068.84;4978508;28;101591;-87
2022/10/06 07:52:37;;;;;;;8.68;2.42;;;;;;;21.31;53.06;101083.91;4991956;28;96946;-85
2022/10/06 07:55:04;;;;;;;5.70;2.92;;;;;;;21.22;53.34;101088.03;4988736;28;96913;-87
2022/10/06 07:57:39;;;;;;;9.65;3.65;;;;;;;21.05;53.87;101093.63;4974172;28;101694;-87
2022/10/06 08:00:06;;;;;;;7.72;3.42;;;;;;;21.07;53.63;101092.59;4977121;28;100097;-87
2022/10/06 08:02:38;;;;;;;11.48;3.40;;;;;;;21.40;53.29;101100.19;4996544;28;97333;-86
2022/10/06 08:05:04;;;;;;;8.55;3.78;;;;;;;22.03;52.15;101103.91;4987109;28;97174;-87
2022/10/06 08:07:30;;;;;;;8.05;3.22;;;;;;;22.02;52.03;101096.88;4974325;28;100166;-89
2022/10/06 08:09:56;;;;;;;5.80;2.47;;;;;;;21.72;52.89;101102.50;4990093;28;101550;-86
2022/10/06 08:12:36;;;;;;;7.22;2.58;;;;;;;21.46;53.23;101115.78;4978184;28;96799;-87
2022/10/06 08:15:04;;;;;;;7.75;2.70;;;;;;;21.29;53.89;101115.19;4988029;28;97340;-86
2022/10/06 08:17:30;;;;;;;5.82;2.53;;;;;;;21.20;54.38;101130.00;4979567;28;101676;-86
2022/10/06 08:19:55;;;;;;;6.07;2.90;;;;;;;21.00;54.73;101120.63;4989042;28;100533;-86
2022/10/06 08:22:26;;;;;;;3.83;2.17;;;;;;;21.05;54.81;101139.88;4976957;28;97227;-89
2022/10/06 08:24:53;;;;;;;4.83;2.40;;;;;;;21.18;54.48;101135.44;4985575;28;97203;-89
2022/10/06 08:27:19;;;;;;;3.15;2.15;;;;;;;21.42;54.31;101142.81;4969221;28;100398;-89
2022/10/06 08:29:45;;;;;;;3.50;2.22;;;;;;;22.15;52.60;101136.94;4989462;28;98136;-86
2022/10/06 08:32:11;;;;;;;9.20;2.20;;;;;;;21.73;53.46;101120.25;4992433;28;97126;-86
2022/10/06 08:34:36;;;;;;;5.13;2.22;;;;;;;21.62;53.83;101152.19;4993870;28;97016;-85
2022/10/06 08:37:02;;;;;;;9.38;2.90;;;;;;;21.43;54.79;101161.41;4992684;28;98076;-86
2022/10/06 08:39:29;;;;;;;3.13;1.70;;;;;;;21.11;54.86;101133.28;4991669;28;99962;-86
2022/10/06 08:41:56;;;;;;;5.57;1.90;;;;;;;20.99;55.16;101149.13;4986592;28;97027;-86
2022/10/06 08:44:31;;;;;;;4.95;1.80;;;;;;;20.82;55.61;101164.50;4988216;28;97340;-85
2022/10/06 08:47:03;;;;;;;3.78;1.80;;;;;;;20.58;56.43;101147.28;4976307;28;101178;-86
2022/10/06 08:49:49;;;;;;;3.17;1.60;;;;;;;20.63;56.51;101176.34;4985685;28;101338;-84
2022/10/06 08:52:37;;;;;;;6.75;1.63;;;;;;;20.57;56.60;101169.59;4977905;28;97147;-86
2022/10/06 08:55:27;;;;;;;2.63;1.70;;;;;;;20.56;57.26;101180.34;4982769;28;97353;-87
2022/10/06 08:58:04;;;;;;;3.20;1.83;;;;;;;20.46;57.22;101195.16;4975736;28;100524;-86
2022/10/06 09:00:32;;;;;;;6.70;2.28;;;;;;;20.45;57.40;101191.66;4981289;28;101433;-86
2022/10/06 09:02:58;;;;;;;7.20;2.30;;;;;;;20.51;57.44;101195.75;4985692;28;97163;-86
2022/10/06 09:05:25;;;;;;;5.43;1.70;;;;;;;20.50;57.58;101200.19;4989350;28;97149;-87
2022/10/06 09:08:16;;;;;;;3.97;2.00;;;;;;;20.36;57.97;101208.19;4984174;28;101428;-86
2022/10/06 09:11:00;;;;;;;6.50;2.00;;;;;;;20.50;58.07;101216.19;4995437;28;101243;-86
2022/10/06 09:13:37;;;;;;;7.22;1.83;;;;;;;21.16;56.89;101208.59;5002916;28;98110;-86
2022/10/06 09:16:06;;;;;;;5.93;2.00;;;;;;;21.25;56.61;101219.50;5002441;28;97164;-86
2022/10/06 09:18:51;;;;;;;5.25;1.85;;;;;;;21.12;56.90;101225.72;4994547;28;98055;-86
2022/10/06 09:21:35;;;;;;;6.32;1.95;;;;;;;21.07;57.18;101228.72;4995939;28;101339;-85
2022/10/06 09:24:15;;;;;;;4.47;2.00;;;;;;;20.93;57.62;101232.25;4987096;28;97647;-86
2022/10/06 09:26:43;;;;;;;4.85;2.50;;;;;;;20.50;58.25;101216.19;4981368;28;97052;-84
2022/10/06 09:29:09;;;;;;;5.97;1.95;;;;;;;20.52;58.46;101222.34;4974388;28;101544;-86
2022/10/06 09:31:37;;;;;;;9.35;2.10;;;;;;;20.34;58.71;101232.28;4971606;28;101082;-85
2022/10/06 09:34:33;;;;;;;8.25;2.75;;;;;;;20.15;59.26;101237.00;4972612;28;96921;-85
2022/10/06 09:37:06;;;;;;;8.32;2.47;;;;;;;20.03;59.33;101225.28;4968999;28;97591;-85
2022/10/06 09:39:37;;;;;;;5.47;2.10;;;;;;;20.02;59.36;101249.38;5002314;28;98399;-82
2022/10/06 09:42:09;;;;;;;5.60;1.90;;;;;;;20.00;59.85;101251.25;4989450;28;101425;-83
2022/10/06 09:44:55;;;;;;;6.70;2.33;;;;;;;19.86;60.13;101263.56;4974002;28;96838;-85
2022/10/06 09:47:35;;;;;;;4.75;2.08;;;;;;;19.78;59.98;101275.59;4978116;28;96933;-83
2022/10/06 09:50:10;;;;;;;9.27;2.65;;;;;;;19.83;60.03;101273.53;4991487;28;101008;-84
2022/10/06 09:52:56;;;;;;;4.30;2.10;;;;;;;19.79;60.00;101272.00;4973904;28;101308;-83
2022/10/06 09:55:27;;;;;;;6.15;2.08;;;;;;;19.82;60.25;101280.69;5004135;28;97278;-84
2022/10/06 09:57:55;;;;;;;13.13;2.30;;;;;;;19.82;60.37;101283.34;4989757;28;97404;-83
2022/10/06 10:00:28;;;;;;;5.85;2.10;;;;;;;19.70;60.18;101262.75;4984379;28;101080;-84
2022/10/06 10:03:01;;;;;;;4.40;1.88;;;;;;;19.74;60.01;101277.59;5003169;28;98356;-84
2022/10/06 10:05:32;;;;;;;8.73;2.58;;;;;;;19.74;60.57;101290.91;4987836;28;96814;-84
2022/10/06 10:08:26;;;;;;;7.75;2.38;;;;;;;19.61;60.83;101269.41;4992643;28;97180;-85
2022/10/06 10:13:56;;;;;;;3.58;1.80;;;;;;;19.68;60.97;101296.59;5004324;27;97883;-84
2022/10/06 10:16:26;;;;;;;4.95;2.20;;;;;;;19.61;61.00;101312.03;4980445;28;97288;-83
2022/10/06 10:18:52;;;;;;;5.88;2.20;;;;;;;19.56;60.78;101316.75;4964765;28;97277;-86
2022/10/06 10:21:28;;;;;;;8.05;1.60;;;;;;;19.44;61.11;101323.63;4996829;28;100700;-86
2022/10/06 10:23:58;;;;;;;5.30;2.30;;;;;;;19.30;61.14;101334.16;4995074;28;101280;-86
2022/10/06 10:26:56;;;;;;;6.13;1.90;;;;;;;19.22;60.05;101341.69;4995409;28;96890;-86
2022/10/06 10:29:51;;;;;;;3.88;1.75;;;;;;;19.23;59.34;101348.75;5003364;28;96805;-84
2022/10/06 10:32:55;;;;;;;2.10;1.20;;;;;;;19.08;58.66;101353.09;5018563;27;98279;-86
2022/10/06 10:35:25;;;;;;;3.05;1.65;;;;;;;19.02;58.89;101360.53;4996523;28;100432;-85
2022/10/06 10:38:03;;;;;;;5.53;1.40;;;;;;;18.96;59.02;101349.25;4977535;28;96807;-86
2022/10/06 10:40:49;;;;;;;5.85;1.60;;;;;;;18.85;58.96;101330.38;4993801;28;96958;-86
2022/10/06 10:43:18;;;;;;;8.05;1.98;;;;;;;18.87;59.00;101356.88;4990215;28;100453;-86
2022/10/06 10:45:47;;;;;;;5.30;2.20;;;;;;;18.89;59.04;101350.53;4994236;28;98016;-84
2022/10/06 10:48:29;;;;;;;6.70;1.85;;;;;;;18.90;59.09;101368.22;4977649;27;97341;-86
2022/10/06 10:51:14;;;;;;;7.25;1.73;;;;;;;18.88;58.47;101364.78;5025468;28;96821;-86
2022/10/06 10:54:07;;;;;;;4.45;1.63;;;;;;;18.86;58.51;101373.78;4996420;28;98227;-86
2022/10/06 10:56:33;;;;;;;6.53;1.52;;;;;;;18.91;58.13;101375.28;5006341;28;97938;-88
2022/10/06 10:59:06;;;;;;;5.22;1.70;;;;;;;18.92;57.57;101373.47;4994677;28;97260;-91
2022/10/06 11:02:00;;;;;;;5.43;1.65;;;;;;;18.95;57.78;101378.63;4982200;28;96866;-90
2022/10/06 11:04:26;;;;;;;5.70;1.73;;;;;;;18.80;57.87;101371.44;4998425;28;101272;-89
2022/10/06 11:07:01;;;;;;;6.55;1.30;;;;;;;18.88;57.17;101372.78;4978027;27;101255;-88
2022/10/06 11:09:57;;;;;;;7.55;1.60;;;;;;;18.96;56.78;101394.50;4980941;28;97406;-89
2022/10/06 11:12:56;;;;;;;4.97;2.08;;;;;;;19.08;56.15;101402.78;4957807;28;97210;-89
2022/10/06 11:15:31;;;;;;;4.68;1.20;;;;;;;19.13;55.86;101398.09;4976481;28;101897;-87
2022/10/06 11:18:04;;;;;;;5.88;1.33;;;;;;;19.13;55.86;101395.41;4987420;28;100198;-89
2022/10/06 11:20:48;;;;;;;1.95;0.90;;;;;;;19.12;54.82;101397.22;4980102;28;96768;-88
2022/10/06 11:23:17;;;;;;;4.18;1.50;;;;;;;19.21;54.50;101411.84;4987586;28;96662;-89
2022/10/06 11:26:08;;;;;;;3.20;1.15;;;;;;;19.26;53.99;101392.94;5006192;28;99886;-88
2022/10/06 11:28:41;;;;;;;5.75;0.80;;;;;;;19.34;53.11;101404.91;5011799;28;96846;-87
2022/10/06 11:31:22;;;;;;;7.90;1.00;;;;;;;19.30;52.94;101413.16;4992486;28;97202;-88
2022/10/06 11:33:55;;;;;;;2.65;1.30;;;;;;;19.27;52.24;101418.66;4992599;28;97241;-87
2022/10/06 11:36:45;;;;;;;2.33;1.02;;;;;;;19.28;52.14;101423.03;4976754;28;101646;-91
2022/10/06 11:39:34;;;;;;;6.10;1.52;;;;;;;19.23;52.72;101417.97;4997908;28;98730;-91
2022/10/06 11:42:11;;;;;;;4.40;1.10;;;;;;;19.22;53.11;101421.53;4968853;28;96974;-87
2022/10/06 11:44:43;;;;;;;3.83;1.30;;;;;;;19.18;52.84;101426.19;4985093;28;97161;-88
2022/10/06 11:47:14;;;;;;;3.38;1.17;;;;;;;19.09;53.14;101418.69;4979216;28;97213;-87
2022/10/06 11:49:54;;;;;;;4.93;1.23;;;;;;;19.20;53.02;101426.09;4989227;28;101504;-88
2022/10/06 11:52:20;;;;;;;4.30;1.10;;;;;;;19.22;52.71;101422.41;4971126;28;96793;-87